Lakeville, MN

6:29 AM CDT on May 25, 2018 (GMT -0500)
Airlake

Weather History for KLVN - October, 2014

Change the Weather History Date:

Wednesday, October 22, 2014

  Actual Average Record
Temperature  
Mean Temperature 48 °F -  
Max Temperature 59 °F 57 °F 81 °F (1992)
Min Temperature 37 °F 36 °F 18 °F (1976)
Degree Days  
Heating Degree Days 17    
Moisture  
Dew Point 39 °F    
Average Humidity 73    
Maximum Humidity 93    
Minimum Humidity 55    
Precipitation  
Precipitation 0.00 in - - ()
Sea Level Pressure  
Sea Level Pressure 30.13 in    
Wind  
Wind Speed 9 mph (SSE)    
Max Wind Speed 18 mph    
Max Gust Speed 25 mph    
Visibility 10 miles    
Events      
Averages and records for this station are not official NWS values.
T = Trace of Precipitation, MM = Missing Value Source: NWS Daily Summary

Daily Weather History Graph

Daily Weather History Graph

Search for Another Location

Airport or City:

Astronomy

Oct. 22, 2014 Rise Set
Actual Time 7:37 AM CDT 6:16 PM CDT
Civil Twilight 7:07 AM CDT 6:46 PM CDT
Nautical Twilight 6:33 AM CDT 7:20 PM CDT
Astronomical Twilight 5:59 AM CDT 7:54 PM CDT
Moon 6:16 AM CDT (10/22) 5:45 PM CDT (10/22)
Length of Visible Light 11h 38m
Length of Day
10h 39m
Waning Crescent, 1% of the Moon is Illuminated
Oct 22
Waning Crescent
Oct 23
New
Oct 30
First Quarter
Nov 6
Full
Nov 14
Last Quarter

Hourly Weather History & Observations

Time (CDT) Temp. Windchill Dew Point Humidity Pressure Visibility Wind Dir Wind Speed Gust Speed Precip Events Conditions
12:08 AM 41.0 °F 37.1 °F 37.4 °F 87% 30.18 in 10.0 mi SSE 5.8 mph - N/A   Clear
12:28 AM 41.0 °F 36.4 °F 37.4 °F 87% 30.17 in 10.0 mi SE 6.9 mph - N/A   Clear
12:48 AM 41.0 °F 36.4 °F 37.4 °F 87% 30.18 in 10.0 mi SE 6.9 mph - N/A   Clear
1:09 AM 41.0 °F 35.8 °F 37.4 °F 87% 30.18 in 10.0 mi SE 8.1 mph - N/A   Clear
1:28 AM 41.0 °F 34.7 °F 37.4 °F 87% 30.17 in 10.0 mi SE 10.4 mph - N/A   Clear
1:48 AM 41.0 °F 35.2 °F 37.4 °F 87% 30.18 in 10.0 mi SE 9.2 mph - N/A   Clear
2:08 AM 41.0 °F 35.8 °F 37.4 °F 87% 30.19 in 10.0 mi SE 8.1 mph - N/A   Clear
2:28 AM 41.0 °F 35.8 °F 37.4 °F 87% 30.19 in 10.0 mi SE 8.1 mph - N/A   Clear
2:48 AM 39.2 °F 33.6 °F 35.6 °F 87% 30.19 in 10.0 mi SSE 8.1 mph - N/A   Clear
3:09 AM 39.2 °F 33.0 °F 35.6 °F 87% 30.19 in 10.0 mi SE 9.2 mph - N/A   Clear
3:28 AM 39.2 °F 33.6 °F 35.6 °F 87% 30.19 in 10.0 mi SE 8.1 mph - N/A   Clear
3:48 AM 37.4 °F 32.8 °F 35.6 °F 93% 30.19 in 10.0 mi SE 5.8 mph - N/A   Clear
4:09 AM 37.4 °F 33.8 °F 35.6 °F 93% 30.19 in 10.0 mi SE 4.6 mph - N/A   Clear
4:28 AM 37.4 °F 32.1 °F 35.6 °F 93% 30.20 in 10.0 mi SE 6.9 mph - N/A   Clear
4:48 AM 37.4 °F 32.8 °F 35.6 °F 93% 30.20 in 10.0 mi SE 5.8 mph - N/A   Clear
5:09 AM 37.4 °F 32.1 °F 35.6 °F 93% 30.20 in 10.0 mi SE 6.9 mph - N/A   Clear
5:28 AM 37.4 °F 32.8 °F 35.6 °F 93% 30.20 in 10.0 mi SSE 5.8 mph - N/A   Clear
5:48 AM 37.4 °F 31.4 °F 35.6 °F 93% 30.20 in 10.0 mi SSE 8.1 mph - N/A   Clear
6:08 AM 37.4 °F 32.1 °F 35.6 °F 93% 30.21 in 10.0 mi SSE 6.9 mph - N/A   Clear
6:28 AM 37.4 °F 32.1 °F 35.6 °F 93% 30.21 in 10.0 mi SE 6.9 mph - N/A   Clear
6:49 AM 37.4 °F 33.8 °F 35.6 °F 93% 30.21 in 10.0 mi SSE 4.6 mph - N/A   Clear
7:08 AM 37.4 °F 32.8 °F 35.6 °F 93% 30.21 in 10.0 mi SSE 5.8 mph - N/A   Clear
7:28 AM 37.4 °F 32.8 °F 35.6 °F 93% 30.20 in 10.0 mi SE 5.8 mph - N/A   Clear
7:49 AM 37.4 °F 32.1 °F 35.6 °F 93% 30.20 in 10.0 mi SE 6.9 mph - N/A   Clear
8:08 AM 37.4 °F 32.8 °F 35.6 °F 93% 30.19 in 10.0 mi SE 5.8 mph - N/A   Clear
8:28 AM 39.2 °F 33.6 °F 35.6 °F 87% 30.20 in 10.0 mi SE 8.1 mph - N/A   Clear
8:49 AM 42.8 °F 37.5 °F 37.4 °F 81% 30.20 in 10.0 mi SE 9.2 mph - N/A   Clear
9:08 AM 42.8 °F 37.0 °F 37.4 °F 81% 30.19 in 10.0 mi SSE 10.4 mph - N/A   Clear
9:28 AM 44.6 °F 38.4 °F 37.4 °F 76% 30.18 in 10.0 mi SSE 12.7 mph 18.4 mph N/A   Mostly Cloudy
9:49 AM 46.4 °F 41.1 °F 39.2 °F 76% 30.19 in 10.0 mi SSE 11.5 mph 18.4 mph N/A   Mostly Cloudy
10:08 AM 46.4 °F 42.4 °F 39.2 °F 76% 30.19 in 10.0 mi SSE 8.1 mph 20.7 mph N/A   Mostly Cloudy
10:28 AM 46.4 °F 40.7 °F 39.2 °F 76% 30.18 in 10.0 mi SSE 12.7 mph - N/A   Overcast
10:49 AM 48.2 °F - 39.2 °F 71% 30.18 in 10.0 mi SSE 12.7 mph 18.4 mph N/A   Overcast
11:08 AM 48.2 °F - 39.2 °F 71% 30.18 in 10.0 mi SSE 13.8 mph 19.6 mph N/A   Overcast
11:28 AM 48.2 °F - 39.2 °F 71% 30.17 in 10.0 mi SSE 17.3 mph 23.0 mph N/A   Overcast
11:49 AM 50.0 °F - 39.2 °F 66% 30.17 in 10.0 mi SSE 13.8 mph 23.0 mph N/A   Overcast
12:08 PM 51.8 °F - 39.2 °F 62% 30.16 in 10.0 mi SSE 16.1 mph 21.9 mph N/A   Overcast
12:28 PM 51.8 °F - 39.2 °F 62% 30.15 in 10.0 mi SSE 17.3 mph 21.9 mph N/A   Overcast
12:48 PM 53.6 °F - 41.0 °F 62% 30.14 in 10.0 mi SSE 18.4 mph 21.9 mph N/A   Overcast
1:08 PM 55.4 °F - 41.0 °F 58% 30.13 in 10.0 mi SSE 16.1 mph 25.3 mph N/A   Overcast
1:28 PM 55.4 °F - 41.0 °F 58% 30.13 in 7.0 mi SSE 12.7 mph 21.9 mph N/A   Overcast
1:48 PM 57.2 °F - 42.8 °F 59% 30.11 in 10.0 mi SSE 18.4 mph 25.3 mph N/A   Scattered Clouds
2:08 PM 57.2 °F - 42.8 °F 59% 30.10 in 10.0 mi SSE 17.3 mph 24.2 mph N/A   Scattered Clouds
2:28 PM 57.2 °F - 42.8 °F 59% 30.09 in 10.0 mi SSE 13.8 mph 23.0 mph N/A   Scattered Clouds
2:48 PM 57.2 °F - 42.8 °F 59% 30.09 in 10.0 mi SSE 17.3 mph 21.9 mph N/A   Scattered Clouds
3:08 PM 57.2 °F - 42.8 °F 59% 30.08 in 10.0 mi SSE 15.0 mph 24.2 mph N/A   Mostly Cloudy
3:28 PM 59.0 °F - 42.8 °F 55% 30.08 in 10.0 mi SE 17.3 mph 23.0 mph N/A   Scattered Clouds
3:48 PM 57.2 °F - 42.8 °F 59% 30.08 in 10.0 mi SE 11.5 mph 20.7 mph N/A   Scattered Clouds
4:08 PM 59.0 °F - 42.8 °F 55% 30.07 in 10.0 mi SE 13.8 mph 24.2 mph N/A   Scattered Clouds
4:29 PM 57.2 °F - 42.8 °F 59% 30.07 in 7.0 mi SSE 12.7 mph 20.7 mph N/A   Scattered Clouds
4:48 PM 57.2 °F - 42.8 °F 59% 30.06 in 10.0 mi SSE 12.7 mph 18.4 mph N/A   Mostly Cloudy
5:08 PM 57.2 °F - 42.8 °F 59% 30.05 in 10.0 mi SE 16.1 mph 24.2 mph N/A   Scattered Clouds
5:29 PM 57.2 °F - 42.8 °F 59% 30.05 in 10.0 mi SE 11.5 mph 19.6 mph N/A   Scattered Clouds
5:48 PM 57.2 °F - 42.8 °F 59% 30.05 in 10.0 mi SSE 11.5 mph 19.6 mph N/A   Mostly Cloudy
6:08 PM 55.4 °F - 41.0 °F 58% 30.04 in 10.0 mi SSE 13.8 mph 23.0 mph N/A   Mostly Cloudy
6:29 PM 55.4 °F - 41.0 °F 58% 30.05 in 10.0 mi SSE 9.2 mph 17.3 mph N/A   Scattered Clouds
6:48 PM 55.4 °F - 42.8 °F 63% 30.04 in 10.0 mi SSE 9.2 mph 19.6 mph N/A   Clear
7:08 PM 55.4 °F - 41.0 °F 58% 30.05 in 10.0 mi SSE 10.4 mph - N/A   Clear
7:29 PM 55.4 °F - 41.0 °F 58% 30.05 in 10.0 mi SSE 9.2 mph 17.3 mph N/A   Clear
7:48 PM 55.4 °F - 41.0 °F 58% 30.05 in 10.0 mi SSE 10.4 mph 16.1 mph N/A   Clear
8:08 PM 55.4 °F - 41.0 °F 58% 30.04 in 10.0 mi SSE 11.5 mph 17.3 mph N/A   Clear
8:29 PM 53.6 °F - 41.0 °F 62% 30.04 in 10.0 mi SSE 9.2 mph 17.3 mph N/A   Clear
8:48 PM 53.6 °F - 41.0 °F 62% 30.05 in 10.0 mi South 6.9 mph - N/A   Clear
9:09 PM 53.6 °F - 41.0 °F 62% 30.08 in 10.0 mi WSW 9.2 mph - N/A   Clear
9:28 PM 53.6 °F - 41.0 °F 62% 30.07 in 10.0 mi South 8.1 mph - N/A   Clear
9:48 PM 53.6 °F - 41.0 °F 62% 30.06 in 10.0 mi South 9.2 mph - N/A   Clear
10:08 PM 53.6 °F - 41.0 °F 62% 30.06 in 10.0 mi South 9.2 mph - N/A   Clear
10:28 PM 53.6 °F - 41.0 °F 62% 30.05 in 10.0 mi South 9.2 mph 16.1 mph N/A   Clear
10:49 PM 53.6 °F - 41.0 °F 62% 30.03 in 10.0 mi South 10.4 mph 17.3 mph N/A   Clear
11:08 PM 53.6 °F - 41.0 °F 62% 30.04 in 10.0 mi South 8.1 mph - N/A   Clear
11:28 PM 53.6 °F - 42.8 °F 67% 30.04 in 10.0 mi South 6.9 mph - N/A   Mostly Cloudy
11:49 PM 53.6 °F - 42.8 °F 67% 30.03 in 10.0 mi South 9.2 mph - N/A   Mostly Cloudy